Time;durP1;ratioP1;P1;durP2;ratioP2;P2;SDS_P1;SDS_P2;PMS_P1;PMS_P2;Temp;Humidity;BMP_temperature;BMP_pressure;BME280_temperature;BME280_humidity;BME280_pressure;Samples;Min_cycle;Max_cycle;Signal;HPM_P1;HPM_P2
2022/06/01 00:01:04;;;;;;;16.10;13.05;;;;;;;;;;6185234;23;20032;-65
2022/06/01 00:03:31;;;;;;;14.40;12.73;;;;;;;;;;6172232;23;20053;-64
2022/06/01 00:05:58;;;;;;;15.32;13.68;;;;;;;;;;6179211;23;20100;-64
2022/06/01 00:08:25;;;;;;;16.48;14.00;;;;;;;;;;6183998;23;20025;-64
2022/06/01 00:10:51;;;;;;;16.13;13.73;;;;;;;;;;6175397;23;20104;-67
2022/06/01 00:13:19;;;;;;;15.40;13.75;;;;;;;;;;6183538;23;20104;-65
2022/06/01 00:15:46;;;;;;;16.55;13.70;;;;;;;;;;6170508;23;20036;-64
2022/06/01 00:18:13;;;;;;;14.70;12.52;;;;;;;;;;6177468;23;20021;-65
2022/06/01 00:20:40;;;;;;;15.40;13.80;;;;;;;;;;6175112;23;20413;-65
2022/06/01 00:23:06;;;;;;;15.02;13.30;;;;;;;;;;6133544;23;20383;-64
2022/06/01 00:25:33;;;;;;;14.82;13.00;;;;;;;;;;6184665;23;20095;-66
2022/06/01 00:28:00;;;;;;;15.48;13.32;;;;;;;;;;6176905;23;20036;-65
2022/06/01 00:30:26;;;;;;;15.25;13.65;;;;;;;;;;6178449;23;20028;-65
2022/06/01 00:32:53;;;;;;;14.50;12.95;;;;;;;;;;6170685;23;20025;-64
2022/06/01 00:35:22;;;;;;;15.30;13.05;;;;;;;;;;6183529;23;20092;-65
2022/06/01 00:37:48;;;;;;;15.63;14.02;;;;;;;;;;6176690;23;20108;-65
2022/06/01 00:40:16;;;;;;;15.68;13.85;;;;;;;;;;6183734;23;20021;-65
2022/06/01 00:42:44;;;;;;;16.25;14.40;;;;;;;;;;6175772;23;20112;-64
2022/06/01 00:45:12;;;;;;;16.67;14.93;;;;;;;;;;6174990;23;20029;-64
2022/06/01 00:47:38;;;;;;;25.52;14.40;;;;;;;;;;6180365;23;20051;-65
2022/06/01 00:50:14;;;;;;;16.20;14.48;;;;;;;;;;6176886;23;20107;-64
2022/06/01 00:52:45;;;;;;;17.25;15.30;;;;;;;;;;6183639;23;20467;-65
2022/06/01 00:55:14;;;;;;;18.50;15.70;;;;;;;;;;6173679;23;20387;-65
2022/06/01 00:57:41;;;;;;;17.55;15.52;;;;;;;;;;6178145;23;20068;-65
2022/06/01 01:00:11;;;;;;;18.45;15.88;;;;;;;;;;6169708;23;20521;-64
2022/06/01 01:02:40;;;;;;;19.17;16.42;;;;;;;;;;6157484;23;20068;-65
2022/06/01 01:05:08;;;;;;;17.95;15.73;;;;;;;;;;6175142;23;20099;-64
2022/06/01 01:07:35;;;;;;;20.63;18.00;;;;;;;;;;6156775;23;20024;-65
2022/06/01 01:10:02;;;;;;;16.17;14.32;;;;;;;;;;6183085;23;20337;-65
2022/06/01 01:12:55;;;;;;;20.73;17.17;;;;;;;;;;6167272;23;20112;-64
2022/06/01 01:15:15;;;;;;;18.70;16.08;;;;;;;;;;6181977;23;20095;-65
2022/06/01 01:17:43;;;;;;;19.52;16.50;;;;;;;;;;6174519;23;20055;-65
2022/06/01 01:20:10;;;;;;;19.13;16.88;;;;;;;;;;6182362;23;20060;-64
2022/06/01 01:22:40;;;;;;;19.60;17.58;;;;;;;;;;6174975;23;20060;-64
2022/06/01 01:25:16;;;;;;;18.95;16.65;;;;;;;;;;6177039;23;20021;-63
2022/06/01 01:27:43;;;;;;;19.48;17.25;;;;;;;;;;6169493;23;20025;-64
2022/06/01 01:30:28;;;;;;;19.23;17.08;;;;;;;;;;6182045;23;20406;-64
2022/06/01 01:32:55;;;;;;;19.40;17.30;;;;;;;;;;6176219;23;20055;-64
2022/06/01 01:35:21;;;;;;;20.75;18.52;;;;;;;;;;6181788;23;20053;-64
2022/06/01 01:37:48;;;;;;;23.58;19.48;;;;;;;;;;6181192;23;20025;-64
2022/06/01 01:40:15;;;;;;;21.10;17.25;;;;;;;;;;6175102;23;20099;-65
2022/06/01 01:42:41;;;;;;;18.33;16.17;;;;;;;;;;6182877;23;20108;-65
2022/06/01 01:45:18;;;;;;;17.48;15.13;;;;;;;;;;6175345;23;20132;-64
2022/06/01 01:47:45;;;;;;;16.60;14.70;;;;;;;;;;6182465;23;20339;-65
2022/06/01 01:50:12;;;;;;;16.52;14.52;;;;;;;;;;6166796;23;20104;-64
2022/06/01 01:52:38;;;;;;;15.30;13.30;;;;;;;;;;6179075;23;20020;-64
2022/06/01 01:55:12;;;;;;;15.38;12.98;;;;;;;;;;6175632;23;20029;-64
2022/06/01 01:57:50;;;;;;;13.75;12.00;;;;;;;;;;6182401;23;20107;-64
2022/06/01 02:00:22;;;;;;;15.45;12.18;;;;;;;;;;6174008;23;20024;-64
2022/06/01 02:03:00;;;;;;;13.20;10.43;;;;;;;;;;6176301;23;20100;-65
2022/06/01 02:08:36;;;;;;;13.52;10.13;;;;;;;;;;6181598;23;20418;-65
2022/06/01 02:14:01;;;;;;;13.80;9.95;;;;;;;;;;6182049;23;20029;-65
2022/06/01 02:16:30;;;;;;;12.60;9.23;;;;;;;;;;6176247;23;20056;-64
2022/06/01 02:18:59;;;;;;;12.57;9.50;;;;;;;;;;6167506;23;20017;-65
2022/06/01 02:21:27;;;;;;;14.65;9.13;;;;;;;;;;6181116;23;20117;-66
2022/06/01 02:23:54;;;;;;;14.57;8.90;;;;;;;;;;6174360;23;20056;-64
2022/06/01 02:26:20;;;;;;;10.18;9.05;;;;;;;;;;6181544;23;20103;-64
2022/06/01 02:28:49;;;;;;;12.18;8.50;;;;;;;;;;6174524;23;20025;-64
2022/06/01 02:31:16;;;;;;;11.80;9.93;;;;;;;;;;6175985;23;20045;-65
2022/06/01 02:33:43;;;;;;;10.95;8.40;;;;;;;;;;6168368;23;20045;-64
2022/06/01 02:36:10;;;;;;;12.60;8.82;;;;;;;;;;6181718;23;20021;-64
2022/06/01 02:38:39;;;;;;;9.70;7.85;;;;;;;;;;6180821;23;20100;-64
2022/06/01 02:41:06;;;;;;;12.73;8.48;;;;;;;;;;6175063;23;20060;-65
2022/06/01 02:43:47;;;;;;;10.52;8.27;;;;;;;;;;6181960;23;20103;-64
2022/06/01 02:46:14;;;;;;;12.60;7.32;;;;;;;;;;6167168;23;20021;-64
2022/06/01 02:48:43;;;;;;;10.80;7.25;;;;;;;;;;6181679;23;20033;-64
2022/06/01 02:51:09;;;;;;;12.52;7.75;;;;;;;;;;6173278;23;20032;-63
2022/06/01 02:53:37;;;;;;;12.43;7.25;;;;;;;;;;6182189;23;20027;-64
2022/06/01 02:56:04;;;;;;;10.93;8.57;;;;;;;;;;6173825;23;20063;-63
2022/06/01 02:58:31;;;;;;;10.75;8.60;;;;;;;;;;6172341;23;20112;-63
2022/06/01 03:01:00;;;;;;;11.98;8.90;;;;;;;;;;6180334;23;20116;-64
2022/06/01 03:03:27;;;;;;;15.90;10.20;;;;;;;;;;6172568;23;20025;-64
2022/06/01 03:05:53;;;;;;;14.45;11.18;;;;;;;;;;6181969;23;20439;-64
2022/06/01 03:08:20;;;;;;;13.30;10.80;;;;;;;;;;6174047;23;20099;-63
2022/06/01 03:10:48;;;;;;;15.55;10.88;;;;;;;;;;6175861;23;20104;-64
2022/06/01 03:13:19;;;;;;;14.40;10.98;;;;;;;;;;6171231;23;20458;-64
2022/06/01 03:15:45;;;;;;;14.40;10.98;;;;;;;;;;6181646;23;20100;-65
2022/06/01 03:18:11;;;;;;;14.32;11.55;;;;;;;;;;6173229;23;20096;-64
2022/06/01 03:20:38;;;;;;;14.25;11.90;;;;;;;;;;6181199;23;20402;-64
2022/06/01 03:23:04;;;;;;;13.88;11.20;;;;;;;;;;6181538;23;20063;-64
2022/06/01 03:25:31;;;;;;;13.02;11.32;;;;;;;;;;6139456;23;20021;-64
2022/06/01 03:27:59;;;;;;;13.20;10.80;;;;;;;;;;6180337;23;20029;-63
2022/06/01 03:30:26;;;;;;;16.90;11.68;;;;;;;;;;6172934;23;20017;-64
2022/06/01 03:32:53;;;;;;;13.57;10.55;;;;;;;;;;6181534;23;20053;-64
2022/06/01 03:35:21;;;;;;;14.35;11.00;;;;;;;;;;6172984;23;20025;-64
2022/06/01 03:37:48;;;;;;;14.57;11.23;;;;;;;;;;6175949;23;20119;-64
2022/06/01 03:40:16;;;;;;;13.73;11.50;;;;;;;;;;6172051;23;20063;-66
2022/06/01 03:42:42;;;;;;;14.13;11.63;;;;;;;;;;6179286;23;20021;-64
2022/06/01 03:47:55;;;;;;;13.48;11.40;;;;;;;;;;6173999;23;20500;-64
2022/06/01 03:50:23;;;;;;;15.50;11.45;;;;;;;;;;6181353;23;20048;-63
2022/06/01 03:52:50;;;;;;;14.30;11.87;;;;;;;;;;6168708;23;20100;-63
2022/06/01 03:55:16;;;;;;;15.65;12.63;;;;;;;;;;6175167;23;20326;-65
2022/06/01 03:57:43;;;;;;;15.10;12.45;;;;;;;;;;6174590;23;20031;-64
2022/06/01 04:00:11;;;;;;;14.43;12.23;;;;;;;;;;6180974;23;20099;-64
2022/06/01 04:02:38;;;;;;;14.40;11.02;;;;;;;;;;6177827;23;20112;-64
2022/06/01 04:05:10;;;;;;;17.38;12.73;;;;;;;;;;6154475;23;20405;-64
2022/06/01 04:07:37;;;;;;;17.48;13.43;;;;;;;;;;6200563;23;20031;-64
2022/06/01 04:10:03;;;;;;;16.02;12.15;;;;;;;;;;6203050;22;20103;-64
2022/06/01 04:12:29;;;;;;;14.60;12.40;;;;;;;;;;6210950;23;20142;-65
2022/06/01 04:14:56;;;;;;;15.20;12.40;;;;;;;;;;6203810;23;20059;-64
2022/06/01 04:17:22;;;;;;;15.45;12.30;;;;;;;;;;6211250;23;20017;-64
2022/06/01 04:19:49;;;;;;;15.18;11.80;;;;;;;;;;6197570;23;20090;-64
2022/06/01 04:22:15;;;;;;;16.45;13.23;;;;;;;;;;6204871;23;20017;-64
2022/06/01 04:24:42;;;;;;;16.15;13.60;;;;;;;;;;6210980;23;20354;-64
2022/06/01 04:27:09;;;;;;;18.10;13.93;;;;;;;;;;6203981;23;20135;-66
2022/06/01 04:29:35;;;;;;;21.00;14.60;;;;;;;;;;6211225;23;20342;-63
2022/06/01 04:32:03;;;;;;;19.83;15.02;;;;;;;;;;6204250;23;20058;-64
2022/06/01 04:34:29;;;;;;;21.00;16.30;;;;;;;;;;6205404;23;20075;-64
2022/06/01 04:36:56;;;;;;;21.67;16.85;;;;;;;;;;6196557;23;20123;-64
2022/06/01 04:39:22;;;;;;;31.08;23.02;;;;;;;;;;6211150;23;20100;-64
2022/06/01 04:41:49;;;;;;;23.55;18.15;;;;;;;;;;6203310;23;20073;-64
2022/06/01 04:44:15;;;;;;;26.42;18.83;;;;;;;;;;6210571;23;20044;-64
2022/06/01 04:46:42;;;;;;;26.35;19.80;;;;;;;;;;6213000;23;20020;-64
2022/06/01 04:49:08;;;;;;;27.63;20.48;;;;;;;;;;6197055;23;20111;-63
2022/06/01 04:51:35;;;;;;;24.30;20.42;;;;;;;;;;6208791;23;20021;-65
2022/06/01 04:54:02;;;;;;;28.98;22.65;;;;;;;;;;6205538;23;20506;-64
2022/06/01 04:56:28;;;;;;;28.38;22.33;;;;;;;;;;6186299;23;20139;-64
2022/06/01 04:58:55;;;;;;;26.77;21.80;;;;;;;;;;6205924;23;20067;-64
2022/06/01 05:01:21;;;;;;;27.25;21.92;;;;;;;;;;6210085;23;20408;-64
2022/06/01 05:03:48;;;;;;;24.90;20.85;;;;;;;;;;6204383;23;20358;-63
2022/06/01 05:06:14;;;;;;;28.17;21.80;;;;;;;;;;6203546;23;20023;-66
2022/06/01 05:08:41;;;;;;;27.15;22.13;;;;;;;;;;6212500;23;20067;-63
2022/06/01 05:11:07;;;;;;;23.73;19.35;;;;;;;;;;6204840;23;20025;-63
2022/06/01 05:13:33;;;;;;;28.65;22.15;;;;;;;;;;6213197;23;20048;-64
2022/06/01 05:16:01;;;;;;;31.95;21.02;;;;;;;;;;6199505;23;20068;-64
2022/06/01 05:18:28;;;;;;;26.50;21.60;;;;;;;;;;6209061;23;20027;-64
2022/06/01 05:20:57;;;;;;;26.42;21.33;;;;;;;;;;6205938;23;20108;-64
2022/06/01 05:23:24;;;;;;;26.55;19.83;;;;;;;;;;6211815;23;20103;-65
2022/06/01 05:25:52;;;;;;;23.55;20.13;;;;;;;;;;6212846;23;20119;-64
2022/06/01 05:28:23;;;;;;;28.60;20.77;;;;;;;;;;6200698;23;20500;-65
2022/06/01 05:30:49;;;;;;;25.38;19.00;;;;;;;;;;6205519;23;20096;-65
2022/06/01 05:33:22;;;;;;;27.90;20.08;;;;;;;;;;6204139;23;20021;-64
2022/06/01 05:35:49;;;;;;;28.02;18.30;;;;;;;;;;6212817;23;20099;-64
2022/06/01 05:38:15;;;;;;;23.75;18.52;;;;;;;;;;6204943;23;20100;-64
2022/06/01 05:40:42;;;;;;;22.17;16.15;;;;;;;;;;6212756;23;20046;-65
2022/06/01 05:43:10;;;;;;;22.50;16.50;;;;;;;;;;6203115;23;20144;-64
2022/06/01 05:45:36;;;;;;;22.70;17.90;;;;;;;;;;6176874;23;20116;-64
2022/06/01 05:48:03;;;;;;;20.20;16.35;;;;;;;;;;6212397;23;20108;-65
2022/06/01 05:50:29;;;;;;;21.55;16.63;;;;;;;;;;6203815;23;20020;-64
2022/06/01 05:52:56;;;;;;;22.75;17.92;;;;;;;;;;6212103;23;20024;-64
2022/06/01 05:55:22;;;;;;;20.60;16.23;;;;;;;;;;6204755;23;20055;-63
2022/06/01 05:57:48;;;;;;;22.38;16.63;;;;;;;;;;6206338;23;20417;-64
2022/06/01 06:00:16;;;;;;;20.83;15.40;;;;;;;;;;6199322;22;20107;-64
2022/06/01 06:02:43;;;;;;;16.40;13.57;;;;;;;;;;6211907;23;20079;-63
2022/06/01 06:07:56;;;;;;;17.25;12.65;;;;;;;;;;6204577;23;20104;-65
2022/06/01 06:10:23;;;;;;;18.27;13.45;;;;;;;;;;6209483;23;20099;-64
2022/06/01 06:12:49;;;;;;;18.15;12.70;;;;;;;;;;6198029;23;20023;-64
2022/06/01 06:15:16;;;;;;;15.52;11.77;;;;;;;;;;6211938;23;20518;-64
2022/06/01 06:17:42;;;;;;;16.73;11.63;;;;;;;;;;6205547;23;20067;-64
2022/06/01 06:20:09;;;;;;;19.02;13.50;;;;;;;;;;6212628;23;20416;-63
2022/06/01 06:22:36;;;;;;;15.65;12.52;;;;;;;;;;6204700;23;20455;-65
2022/06/01 06:25:02;;;;;;;18.60;12.00;;;;;;;;;;6207617;23;20099;-64
2022/06/01 06:27:29;;;;;;;16.30;12.00;;;;;;;;;;6206264;23;20036;-65
2022/06/01 06:29:55;;;;;;;14.40;12.27;;;;;;;;;;6204187;23;20107;-65
2022/06/01 06:32:22;;;;;;;15.10;11.52;;;;;;;;;;6212193;23;20410;-65
2022/06/01 06:34:48;;;;;;;14.63;11.65;;;;;;;;;;6203865;23;20528;-63
2022/06/01 06:37:15;;;;;;;16.67;12.05;;;;;;;;;;6211329;23;20023;-65
2022/06/01 06:39:41;;;;;;;18.85;14.77;;;;;;;;;;6199382;23;20123;-64
2022/06/01 06:42:07;;;;;;;18.63;15.05;;;;;;;;;;6205788;23;20513;-63
2022/06/01 06:44:36;;;;;;;17.30;13.77;;;;;;;;;;6205087;23;20040;-63
2022/06/01 06:47:03;;;;;;;18.38;14.45;;;;;;;;;;6211964;23;20044;-63
2022/06/01 06:49:30;;;;;;;17.25;14.38;;;;;;;;;;6212071;23;20041;-65
2022/06/01 06:51:57;;;;;;;15.52;12.80;;;;;;;;;;6204412;23;20111;-64
2022/06/01 06:54:24;;;;;;;16.88;13.55;;;;;;;;;;6203536;23;20100;-64
2022/06/01 06:56:53;;;;;;;15.50;12.88;;;;;;;;;;6202449;22;20024;-63
2022/06/01 06:59:19;;;;;;;20.05;13.35;;;;;;;;;;6211617;23;20027;-64
2022/06/01 07:01:45;;;;;;;19.17;13.60;;;;;;;;;;6203895;23;20031;-65
2022/06/01 07:04:12;;;;;;;17.10;11.65;;;;;;;;;;6211866;23;20020;-63
2022/06/01 07:06:38;;;;;;;13.98;11.18;;;;;;;;;;6172940;23;20043;-64
2022/06/01 07:09:05;;;;;;;14.07;11.50;;;;;;;;;;6206032;23;20021;-64
2022/06/01 07:11:31;;;;;;;17.08;11.00;;;;;;;;;;6212045;23;20021;-65
2022/06/01 07:13:58;;;;;;;13.30;10.18;;;;;;;;;;6204281;23;20095;-64
2022/06/01 07:16:30;;;;;;;13.45;10.65;;;;;;;;;;6211956;23;20398;-65
2022/06/01 07:18:58;;;;;;;9.93;8.10;;;;;;;;;;6203892;22;20059;-65
2022/06/01 07:21:25;;;;;;;11.65;9.07;;;;;;;;;;6205215;23;20027;-64
2022/06/01 07:23:57;;;;;;;19.80;9.38;;;;;;;;;;6198994;22;20111;-64
2022/06/01 07:26:25;;;;;;;11.65;9.00;;;;;;;;;;6211166;23;20052;-63
2022/06/01 07:28:52;;;;;;;10.70;9.20;;;;;;;;;;6211477;23;20021;-64
2022/06/01 07:31:19;;;;;;;12.52;9.68;;;;;;;;;;6204350;23;20104;-65
2022/06/01 07:33:46;;;;;;;13.27;9.23;;;;;;;;;;6211718;23;20024;-64
2022/06/01 07:36:14;;;;;;;10.55;8.60;;;;;;;;;;6197156;23;20020;-64
2022/06/01 07:44:14;;;;;;;13.07;8.45;;;;;;;;;;6210907;23;20024;-65
2022/06/01 07:46:41;;;;;;;9.95;7.85;;;;;;;;;;6205121;22;20029;-64
2022/06/01 07:49:13;;;;;;;11.57;7.07;;;;;;;;;;6206076;23;20091;-64
2022/06/01 07:52:00;;;;;;;9.65;7.03;;;;;;;;;;6198490;23;20031;-64
2022/06/01 07:54:26;;;;;;;8.30;6.90;;;;;;;;;;6211248;23;20078;-65
2022/06/01 07:56:52;;;;;;;12.45;6.55;;;;;;;;;;6211587;23;20103;-65
2022/06/01 07:59:19;;;;;;;9.48;6.78;;;;;;;;;;6205153;23;20027;-66
2022/06/01 08:01:45;;;;;;;8.65;6.45;;;;;;;;;;6210926;23;20059;-66
2022/06/01 08:04:13;;;;;;;8.30;5.43;;;;;;;;;;6195938;23;20397;-66
2022/06/01 08:06:39;;;;;;;5.18;4.25;;;;;;;;;;6207116;23;20031;-65
2022/06/01 08:09:21;;;;;;;6.45;4.43;;;;;;;;;;6203290;23;20385;-66
2022/06/01 08:14:36;;;;;;;10.32;6.20;;;;;;;;;;6203214;23;20017;-66
2022/06/01 08:17:02;;;;;;;7.80;5.57;;;;;;;;;;6206188;23;20513;-65
2022/06/01 08:19:29;;;;;;;7.45;5.80;;;;;;;;;;6197493;23;20017;-66
2022/06/01 08:21:55;;;;;;;7.45;5.55;;;;;;;;;;6213137;23;20346;-66
2022/06/01 08:24:21;;;;;;;6.95;5.10;;;;;;;;;;6212609;23;20025;-64
2022/06/01 08:26:48;;;;;;;7.32;5.10;;;;;;;;;;6205030;23;20048;-65
2022/06/01 08:29:15;;;;;;;6.90;5.38;;;;;;;;;;6211989;23;20052;-65
2022/06/01 08:31:41;;;;;;;8.45;5.35;;;;;;;;;;6198469;23;20115;-65
2022/06/01 08:34:08;;;;;;;6.53;4.40;;;;;;;;;;6206720;23;20031;-65
2022/06/01 08:36:35;;;;;;;5.95;3.88;;;;;;;;;;6205934;23;20031;-65
2022/06/01 08:39:01;;;;;;;6.57;4.57;;;;;;;;;;6213460;23;20046;-65
2022/06/01 08:41:31;;;;;;;5.68;4.30;;;;;;;;;;6204092;23;20020;-65
2022/06/01 08:44:03;;;;;;;6.68;4.68;;;;;;;;;;6213072;23;20349;-66
2022/06/01 08:46:32;;;;;;;6.72;5.03;;;;;;;;;;6202924;23;20024;-66
2022/06/01 08:49:01;;;;;;;9.43;5.00;;;;;;;;;;6204831;23;20020;-65
2022/06/01 08:51:27;;;;;;;;;;;;;;;;;;6212844;23;20096;-66
2022/06/01 08:53:55;;;;;;;8.48;4.18;;;;;;;;;;6204557;23;20305;-66
2022/06/01 08:56:30;;;;;;;7.05;4.47;;;;;;;;;;6212767;23;20092;-65
2022/06/01 08:59:15;;;;;;;6.47;4.78;;;;;;;;;;6200328;23;20056;-65
2022/06/01 09:01:44;;;;;;;4.38;3.88;;;;;;;;;;6206406;23;20122;-68
2022/06/01 09:04:11;;;;;;;5.25;4.18;;;;;;;;;;6205046;23;20480;-66
2022/06/01 09:06:40;;;;;;;3.95;3.45;;;;;;;;;;6212820;23;20079;-65
2022/06/01 09:09:10;;;;;;;5.47;3.40;;;;;;;;;;6206521;23;20099;-65
2022/06/01 09:11:39;;;;;;;4.97;3.00;;;;;;;;;;6213535;23;20017;-66
2022/06/01 09:14:12;;;;;;;7.18;3.42;;;;;;;;;;6207859;23;20063;-65
2022/06/01 09:16:40;;;;;;;4.47;3.03;;;;;;;;;;6201331;22;20393;-68
2022/06/01 09:19:14;;;;;;;5.47;3.42;;;;;;;;;;6213146;23;20103;-65
2022/06/01 09:24:31;;;;;;;5.70;3.20;;;;;;;;;;6213531;23;21013;-65
2022/06/01 09:27:02;;;;;;;5.93;3.65;;;;;;;;;;6199747;23;20095;-66
2022/06/01 09:29:29;;;;;;;5.63;3.63;;;;;;;;;;6211098;23;20416;-65
2022/06/01 09:31:58;;;;;;;6.20;3.57;;;;;;;;;;6204663;22;20099;-65
2022/06/01 09:34:35;;;;;;;6.35;3.80;;;;;;;;;;6212859;23;20104;-66
2022/06/01 09:37:07;;;;;;;6.00;4.30;;;;;;;;;;6205633;23;20079;-65
2022/06/01 09:39:35;;;;;;;8.45;5.22;;;;;;;;;;6210181;23;20078;-65
2022/06/01 09:42:15;;;;;;;6.15;4.60;;;;;;;;;;6211817;23;20119;-65
2022/06/01 09:44:46;;;;;;;6.00;4.53;;;;;;;;;;6205898;23;20811;-65
2022/06/01 09:47:27;;;;;;;6.45;5.30;;;;;;;;;;6212618;23;20526;-65
2022/06/01 09:49:56;;;;;;;6.78;5.35;;;;;;;;;;6206090;23;20091;-65
2022/06/01 09:52:22;;;;;;;;;;;;;;;;;;6207436;23;20117;-65
2022/06/01 09:54:54;;;;;;;8.63;4.93;;;;;;;;;;6198314;23;20002;-65
2022/06/01 09:57:33;;;;;;;9.70;6.30;;;;;;;;;;6212484;23;20383;-65
2022/06/01 10:06:05;;;;;;;10.55;7.47;;;;;;;;;;6213277;23;20088;-65
2022/06/01 10:06:25;;;;;;;12.20;8.07;;;;;;;;;;6198894;23;20021;-65
2022/06/01 10:09:00;;;;;;;7.05;6.18;;;;;;;;;;6206366;23;20020;-65
2022/06/01 10:11:27;;;;;;;9.70;6.65;;;;;;;;;;6204909;23;20112;-64
2022/06/01 10:14:00;;;;;;;4.30;3.75;;;;;;;;;;6212485;23;20020;-65
2022/06/01 10:16:26;;;;;;;6.05;3.95;;;;;;;;;;6205499;23;20058;-64
2022/06/01 10:18:53;;;;;;;4.07;3.20;;;;;;;;;;6208442;23;20067;-64
2022/06/01 10:21:22;;;;;;;5.90;4.30;;;;;;;;;;6203253;23;20409;-65
2022/06/01 10:23:58;;;;;;;6.55;5.15;;;;;;;;;;6203594;23;20028;-65
2022/06/01 10:26:31;;;;;;;5.93;4.70;;;;;;;;;;6185068;23;20027;-64
2022/06/01 10:29:16;;;;;;;5.63;4.88;;;;;;;;;;6204705;22;20023;-65
2022/06/01 10:31:52;;;;;;;6.22;4.63;;;;;;;;;;6212158;23;20060;-65
2022/06/01 10:34:23;;;;;;;6.97;5.80;;;;;;;;;;6198161;23;20017;-65
2022/06/01 10:36:49;;;;;;;5.03;4.45;;;;;;;;;;6206308;23;20497;-65
2022/06/01 10:39:23;;;;;;;7.50;5.35;;;;;;;;;;6202413;22;20101;-65
2022/06/01 10:42:15;;;;;;;6.85;5.15;;;;;;;;;;6212606;23;20402;-65
2022/06/01 10:44:53;;;;;;;5.28;4.53;;;;;;;;;;6204777;23;20107;-65
2022/06/01 10:47:29;;;;;;;5.90;5.30;;;;;;;;;;6180393;23;20399;-65
2022/06/01 10:49:58;;;;;;;6.88;4.45;;;;;;;;;;6205985;23;20450;-65
2022/06/01 10:52:43;;;;;;;5.93;3.80;;;;;;;;;;6206580;23;20056;-65
2022/06/01 10:55:12;;;;;;;5.75;4.10;;;;;;;;;;6211402;23;20028;-65
2022/06/01 10:57:41;;;;;;;7.68;4.63;;;;;;;;;;6205158;23;20095;-65
2022/06/01 11:00:09;;;;;;;6.03;4.47;;;;;;;;;;6211741;23;20028;-65
2022/06/01 11:02:53;;;;;;;4.97;3.90;;;;;;;;;;6199128;22;20500;-65
2022/06/01 11:05:19;;;;;;;8.48;3.58;;;;;;;;;;6208571;23;20017;-65
2022/06/01 11:08:01;;;;;;;7.30;3.53;;;;;;;;;;6204745;22;20059;-66
2022/06/01 11:10:48;;;;;;;5.60;4.00;;;;;;;;;;6211727;23;20027;-64
2022/06/01 11:13:21;;;;;;;4.57;3.37;;;;;;;;;;6188344;23;20020;-66
2022/06/01 11:15:51;;;;;;;4.63;3.00;;;;;;;;;;6207828;23;20017;-64
2022/06/01 11:18:42;;;;;;;3.00;2.47;;;;;;;;;;6197592;23;20060;-64
2022/06/01 11:21:24;;;;;;;7.38;2.95;;;;;;;;;;6212000;23;20024;-65
2022/06/01 11:23:56;;;;;;;7.05;4.20;;;;;;;;;;6205519;23;20099;-65
2022/06/01 11:26:23;;;;;;;5.40;3.38;;;;;;;;;;6211422;23;20100;-65
2022/06/01 11:29:01;;;;;;;5.40;4.10;;;;;;;;;;6205611;23;20103;-65
2022/06/01 11:31:28;;;;;;;5.63;4.05;;;;;;;;;;6198723;23;20416;-65
2022/06/01 11:33:58;;;;;;;5.07;3.80;;;;;;;;;;6211979;23;20052;-65
2022/06/01 11:36:35;;;;;;;6.43;4.60;;;;;;;;;;6204036;23;20052;-64
2022/06/01 11:39:18;;;;;;;7.05;4.72;;;;;;;;;;6212786;23;20021;-63
2022/06/01 11:42:16;;;;;;;8.20;5.18;;;;;;;;;;6202099;23;20039;-64
2022/06/01 11:44:48;;;;;;;8.07;5.50;;;;;;;;;;6160514;23;20036;-65
2022/06/01 11:47:16;;;;;;;6.40;5.80;;;;;;;;;;6204127;22;20023;-63
2022/06/01 11:50:08;;;;;;;7.32;6.00;;;;;;;;;;6212313;23;20021;-67
2022/06/01 11:52:41;;;;;;;9.43;5.53;;;;;;;;;;6204777;23;20059;-64
2022/06/01 11:55:21;;;;;;;7.07;6.13;;;;;;;;;;6207087;23;20491;-65
2022/06/01 11:58:02;;;;;;;8.93;5.82;;;;;;;;;;6200383;23;20331;-65
2022/06/01 12:00:33;;;;;;;6.05;5.30;;;;;;;;;;6213753;23;20052;-64
2022/06/01 12:03:01;;;;;;;7.18;5.68;;;;;;;;;;6210375;23;20509;-64
2022/06/01 12:05:27;;;;;;;8.10;6.17;;;;;;;;;;6212058;23;20099;-65
2022/06/01 12:08:00;;;;;;;7.55;5.55;;;;;;;;;;6212013;23;20402;-65
2022/06/01 12:10:28;;;;;;;8.57;5.70;;;;;;;;;;6196800;22;20387;-64
2022/06/01 12:12:55;;;;;;;;;;;;;;;;;;6213675;23;20095;-65
2022/06/01 12:15:40;;;;;;;6.97;5.55;;;;;;;;;;6205605;23;19950;-64
2022/06/01 12:18:23;;;;;;;11.65;5.93;;;;;;;;;;6213452;23;20498;-64
2022/06/01 12:20:51;;;;;;;11.75;6.40;;;;;;;;;;6204088;22;20048;-66
2022/06/01 12:28:55;;;;;;;7.32;6.30;;;;;;;;;;6213036;23;20095;-66
2022/06/01 12:31:29;;;;;;;7.47;5.90;;;;;;;;;;6206319;23;20116;-65
2022/06/01 12:34:08;;;;;;;7.93;5.22;;;;;;;;;;6213444;23;20096;-66
2022/06/01 12:36:38;;;;;;;6.80;4.63;;;;;;;;;;6200774;23;20020;-66
2022/06/01 12:39:05;;;;;;;5.15;2.42;;;;;;;;;;6207100;23;20477;-66
2022/06/01 12:41:35;;;;;;;3.30;1.95;;;;;;;;;;6213714;23;20100;-66
2022/06/01 12:44:04;;;;;;;1.70;1.17;;;;;;;;;;6205110;23;20071;-66
2022/06/01 12:46:35;;;;;;;1.40;1.23;;;;;;;;;;6212889;23;20023;-66
2022/06/01 12:49:19;;;;;;;1.52;1.30;;;;;;;;;;6205979;23;20028;-67
2022/06/01 12:51:46;;;;;;;1.20;1.00;;;;;;;;;;6204682;23;20099;-66
2022/06/01 12:54:23;;;;;;;2.17;0.98;;;;;;;;;;6205008;23;20052;-65
2022/06/01 12:56:49;;;;;;;1.48;0.90;;;;;;;;;;6213237;23;20095;-66
2022/06/01 12:59:16;;;;;;;2.10;0.90;;;;;;;;;;6205187;23;20104;-65
2022/06/01 13:01:42;;;;;;;1.58;0.80;;;;;;;;;;6212818;23;20052;-66
2022/06/01 13:04:09;;;;;;;1.08;0.75;;;;;;;;;;6203060;22;20024;-65
2022/06/01 13:06:39;;;;;;;2.90;1.10;;;;;;;;;;6203686;23;20104;-65
2022/06/01 13:09:07;;;;;;;1.20;1.05;;;;;;;;;;6213342;23;20063;-66
2022/06/01 13:11:33;;;;;;;;;;;;;;;;;;6204159;23;20099;-65
2022/06/01 13:14:04;;;;;;;1.38;1.05;;;;;;;;;;6212442;23;19966;-65
2022/06/01 13:16:39;;;;;;;1.20;1.00;;;;;;;;;;6178476;23;20016;-66
2022/06/01 13:19:22;;;;;;;2.13;0.98;;;;;;;;;;6206819;23;20017;-66
2022/06/01 13:21:51;;;;;;;2.28;0.95;;;;;;;;;;6201224;23;20059;-67
2022/06/01 13:24:18;;;;;;;4.05;1.10;;;;;;;;;;6212155;23;20047;-66
2022/06/01 13:26:46;;;;;;;1.27;1.00;;;;;;;;;;6204809;23;20062;-66
2022/06/01 13:29:17;;;;;;;1.73;0.80;;;;;;;;;;6211653;23;20107;-66
2022/06/01 13:31:46;;;;;;;1.00;0.88;;;;;;;;;;6207639;23;20398;-65
2022/06/01 13:34:20;;;;;;;1.33;0.80;;;;;;;;;;6198579;22;20028;-65
2022/06/01 13:36:48;;;;;;;1.80;1.30;;;;;;;;;;6211810;23;20059;-65
2022/06/01 13:39:14;;;;;;;2.28;1.00;;;;;;;;;;6203898;23;20103;-65
2022/06/01 13:41:46;;;;;;;1.75;1.13;;;;;;;;;;6212666;23;20052;-65
2022/06/01 13:44:33;;;;;;;1.40;1.30;;;;;;;;;;6202457;23;20025;-65
2022/06/01 13:47:00;;;;;;;1.88;1.20;;;;;;;;;;6206383;23;20112;-65
2022/06/01 13:49:27;;;;;;;2.20;1.40;;;;;;;;;;6198489;23;20131;-66
2022/06/01 13:52:00;;;;;;;2.58;1.42;;;;;;;;;;6212527;23;20273;-65
2022/06/01 13:54:29;;;;;;;2.30;1.60;;;;;;;;;;6209147;23;20021;-66
2022/06/01 13:57:09;;;;;;;3.33;1.80;;;;;;;;;;6208845;23;20304;-66
2022/06/01 13:59:37;;;;;;;2.28;1.65;;;;;;;;;;6211605;23;20044;-66
2022/06/01 14:02:11;;;;;;;2.97;1.80;;;;;;;;;;6205071;23;20023;-67
2022/06/01 14:04:50;;;;;;;2.80;1.30;;;;;;;;;;6212268;23;20099;-65
2022/06/01 14:07:18;;;;;;;2.95;1.38;;;;;;;;;;6204023;23;20422;-66
2022/06/01 14:09:58;;;;;;;4.38;1.38;;;;;;;;;;6209801;23;20051;-65
2022/06/01 14:12:25;;;;;;;1.55;1.20;;;;;;;;;;6197634;23;20060;-66
2022/06/01 14:14:56;;;;;;;3.83;1.42;;;;;;;;;;6212671;23;20016;-66
2022/06/01 14:17:23;;;;;;;5.57;1.45;;;;;;;;;;6204681;23;20096;-65
2022/06/01 14:19:50;;;;;;;3.53;1.40;;;;;;;;;;6212460;23;20023;-66
2022/06/01 14:22:17;;;;;;;1.88;1.40;;;;;;;;;;6212697;23;20099;-67
2022/06/01 14:30:22;;;;;;;2.03;1.00;;;;;;;;;;6203155;22;20065;-66
2022/06/01 14:32:49;;;;;;;4.97;1.20;;;;;;;;;;6212479;23;20096;-65
2022/06/01 14:35:16;;;;;;;1.30;1.00;;;;;;;;;;6205476;23;20091;-66
2022/06/01 14:37:44;;;;;;;3.05;1.48;;;;;;;;;;6209777;23;20039;-67
2022/06/01 14:40:11;;;;;;;5.20;1.58;;;;;;;;;;6194711;23;20417;-67
2022/06/01 14:42:38;;;;;;;2.45;1.50;;;;;;;;;;6211795;23;20043;-67
2022/06/01 14:45:04;;;;;;;3.88;1.60;;;;;;;;;;6206643;22;20016;-66
2022/06/01 14:47:31;;;;;;;3.13;1.20;;;;;;;;;;6212040;23;20024;-66
2022/06/01 14:49:57;;;;;;;3.35;1.70;;;;;;;;;;6212214;23;20525;-67
2022/06/01 14:52:24;;;;;;;2.60;1.70;;;;;;;;;;6200132;23;20021;-65
2022/06/01 14:54:50;;;;;;;2.05;1.60;;;;;;;;;;6206174;23;20074;-65
2022/06/01 14:57:17;;;;;;;3.28;1.52;;;;;;;;;;6203393;22;20021;-66
2022/06/01 14:59:45;;;;;;;4.22;1.60;;;;;;;;;;6211998;23;20091;-65
2022/06/01 15:02:13;;;;;;;1.55;1.45;;;;;;;;;;6203980;23;20067;-66
2022/06/01 15:04:39;;;;;;;2.08;1.27;;;;;;;;;;6212033;23;20085;-66
2022/06/01 15:07:06;;;;;;;3.00;1.63;;;;;;;;;;6195756;22;20111;-66
2022/06/01 15:09:35;;;;;;;4.03;1.70;;;;;;;;;;6208556;23;20020;-66
2022/06/01 15:12:05;;;;;;;3.88;2.28;;;;;;;;;;6212263;23;20417;-66
2022/06/01 15:14:32;;;;;;;4.13;2.60;;;;;;;;;;6204422;23;20437;-65
2022/06/01 15:17:03;;;;;;;3.70;2.60;;;;;;;;;;6211225;23;20107;-66
2022/06/01 15:19:31;;;;;;;3.53;2.42;;;;;;;;;;6197599;23;20028;-66
2022/06/01 15:21:57;;;;;;;;;;;;;;;;;;6205796;23;20107;-65